PWSweather.com
Personal Weather Stations
Station Observations
KMAMEDFI2
Medfield, MA 02052

Medfield, MA 02052

Lat: 42.1900822, Lon: -71.3296889

Elevation: 138

Station Type: Rainwise WS MK-III

http://www.medfieldweather.com

High Low Average
Temperature 64.3°F17.9°C 37.2°F2.9°C 47.2°F8.4°C
Dew Point 42.6°F5.9°C 16.1°F-8.8°C 32.4°F0.2°C
Winds 19.6 mph 31.5 kmh Calm Calm 6.0 mph W9.7 kmh W
Wind Gusts 33.4 mph53.8 kmh -- 10.0 mph16.1 kmh
Humidity 96% 23% 64%
Pressure 30.14 in1020.7 mb 29.82 in1009.8 mb -
Precipitation 0.38 in9.7 mm - -
Hour Temp Dew Point Humidity Winds Wind Gusts Pressure Precip Precip Rate Daily Precip Total
12:00 AM 40.1°F4.5°C 34.4°F1.3°C 80% 2.3 mph E3.7 kmh E 2.3 mph3.7 kmh 30.18 in1022.0 mb - 0.00 in0.0 mm 0.00 in0.0 mm
12:10 AM 39.8°F4.3°C 35.9°F2.2°C 86% 3.5 mph E5.6 kmh E 2.3 mph3.7 kmh 30.18 in1022.0 mb - 0.00 in0.0 mm 0.00 in0.0 mm
12:20 AM 39.0°F3.9°C 37.2°F2.9°C 93% Calm Calm -- 30.17 in1021.7 mb - 0.00 in0.0 mm 0.00 in0.0 mm
12:30 AM 38.3°F3.5°C 37.2°F2.9°C 96% Calm Calm -- 30.17 in1021.7 mb - 0.04 in1.0 mm 0.04 in1.0 mm
12:40 AM 37.7°F3.2°C 36.4°F2.4°C 95% 2.3 mph NNW3.7 kmh NNW 2.3 mph3.7 kmh 30.16 in1021.3 mb - 0.06 in1.5 mm 0.06 in1.5 mm
12:50 AM 37.4°F3.0°C 36.1°F2.3°C 95% Calm Calm -- 30.15 in1021.0 mb - 0.07 in1.8 mm 0.07 in1.8 mm
01:00 AM 37.3°F2.9°C 36.0°F2.2°C 95% Calm Calm -- 30.14 in1020.7 mb - 0.08 in2.0 mm 0.08 in2.0 mm
01:10 AM 37.2°F2.9°C 35.9°F2.2°C 95% Calm Calm -- 30.12 in1020.0 mb - 0.09 in2.3 mm 0.09 in2.3 mm
01:20 AM 37.2°F2.9°C 35.9°F2.2°C 95% 1.2 mph NNW1.9 kmh NNW 2.3 mph3.7 kmh 30.11 in1019.6 mb - 0.10 in2.5 mm 0.10 in2.5 mm
01:30 AM 37.3°F2.9°C 36.0°F2.2°C 95% 2.3 mph NW3.7 kmh NW 2.3 mph3.7 kmh 30.09 in1019.0 mb - 0.08 in2.0 mm 0.11 in2.8 mm
01:40 AM 37.3°F2.9°C 36.0°F2.2°C 95% 2.3 mph NW3.7 kmh NW 2.3 mph3.7 kmh 30.08 in1018.6 mb - 0.05 in1.3 mm 0.11 in2.8 mm
01:50 AM 37.3°F2.9°C 36.0°F2.2°C 95% 2.3 mph E3.7 kmh E 5.8 mph9.3 kmh 30.07 in1018.3 mb - 0.05 in1.3 mm 0.12 in3.0 mm
02:00 AM 37.3°F2.9°C 36.0°F2.2°C 95% 2.3 mph ESE3.7 kmh ESE 2.3 mph3.7 kmh 30.05 in1017.6 mb - 0.04 in1.0 mm 0.12 in3.0 mm
02:10 AM 37.4°F3.0°C 36.1°F2.3°C 95% 1.2 mph NNW1.9 kmh NNW 2.3 mph3.7 kmh 30.05 in1017.6 mb - 0.03 in0.8 mm 0.12 in3.0 mm
02:20 AM 37.4°F3.0°C 36.1°F2.3°C 95% 2.3 mph SSW3.7 kmh SSW 2.3 mph3.7 kmh 30.03 in1016.9 mb - 0.02 in0.5 mm 0.12 in3.0 mm
02:30 AM 37.5°F3.1°C 36.2°F2.3°C 95% 1.2 mph SW1.9 kmh SW 2.3 mph3.7 kmh 30.02 in1016.6 mb - 0.02 in0.5 mm 0.13 in3.3 mm
02:40 AM 37.5°F3.1°C 36.2°F2.3°C 95% 2.3 mph NE3.7 kmh NE 2.3 mph3.7 kmh 30.02 in1016.6 mb - 0.02 in0.5 mm 0.13 in3.3 mm
02:50 AM 37.6°F3.1°C 36.3°F2.4°C 95% Calm Calm -- 30.01 in1016.3 mb - 0.02 in0.5 mm 0.14 in3.6 mm
03:00 AM 37.6°F3.1°C 36.3°F2.4°C 95% 2.3 mph NW3.7 kmh NW 2.3 mph3.7 kmh 30.00 in1015.9 mb - 0.03 in0.8 mm 0.15 in3.8 mm
03:10 AM 37.7°F3.2°C 36.4°F2.4°C 95% 3.5 mph NNW5.6 kmh NNW 6.9 mph11.1 kmh 29.99 in1015.6 mb - 0.04 in1.0 mm 0.16 in4.1 mm
03:20 AM 37.7°F3.2°C 36.4°F2.4°C 95% 3.5 mph WSW5.6 kmh WSW 2.3 mph3.7 kmh 29.98 in1015.2 mb - 0.05 in1.3 mm 0.17 in4.3 mm
03:30 AM 37.8°F3.2°C 36.5°F2.5°C 95% 4.6 mph NNW7.4 kmh NNW 8.1 mph13.0 kmh 29.98 in1015.2 mb - 0.05 in1.3 mm 0.18 in4.6 mm
03:40 AM 37.8°F3.2°C 36.5°F2.5°C 95% 2.3 mph WNW3.7 kmh WNW 5.8 mph9.3 kmh 29.97 in1014.9 mb - 0.06 in1.5 mm 0.19 in4.8 mm
03:50 AM 37.8°F3.2°C 36.5°F2.5°C 95% 3.5 mph SE5.6 kmh SE 5.8 mph9.3 kmh 29.97 in1014.9 mb - 0.06 in1.5 mm 0.20 in5.1 mm
04:00 AM 37.9°F3.3°C 36.5°F2.5°C 95% 1.2 mph NW1.9 kmh NW 5.8 mph9.3 kmh 29.98 in1015.2 mb - 0.06 in1.5 mm 0.21 in5.3 mm
04:10 AM 37.8°F3.2°C 36.5°F2.5°C 95% 3.5 mph NNW5.6 kmh NNW 5.8 mph9.3 kmh 29.98 in1015.2 mb - 0.07 in1.8 mm 0.23 in5.8 mm
04:20 AM 37.9°F3.3°C 36.9°F2.7°C 96% Calm Calm 2.3 mph3.7 kmh 29.97 in1014.9 mb - 0.07 in1.8 mm 0.24 in6.1 mm
04:30 AM 38.0°F3.3°C 36.9°F2.7°C 96% 3.5 mph N5.6 kmh N 2.3 mph3.7 kmh 29.96 in1014.6 mb - 0.08 in2.0 mm 0.26 in6.6 mm
04:40 AM 38.0°F3.3°C 37.0°F2.8°C 96% 2.3 mph NW3.7 kmh NW 3.5 mph5.6 kmh 29.95 in1014.2 mb - 0.09 in2.3 mm 0.28 in7.1 mm
04:50 AM 38.0°F3.3°C 36.7°F2.6°C 95% 2.3 mph NW3.7 kmh NW 3.5 mph5.6 kmh 29.94 in1013.9 mb - 0.09 in2.3 mm 0.29 in7.4 mm
05:00 AM 38.0°F3.3°C 36.7°F2.6°C 95% Calm Calm -- 29.94 in1013.9 mb - 0.10 in2.5 mm 0.31 in7.9 mm
05:10 AM 38.0°F3.3°C 36.7°F2.6°C 95% 3.5 mph W5.6 kmh W 2.3 mph3.7 kmh 29.93 in1013.5 mb - 0.09 in2.3 mm 0.32 in8.1 mm
05:20 AM 38.0°F3.3°C 36.7°F2.6°C 95% 6.9 mph N11.1 kmh N 5.8 mph9.3 kmh 29.93 in1013.5 mb - 0.09 in2.3 mm 0.33 in8.4 mm
05:30 AM 37.8°F3.2°C 36.5°F2.5°C 95% 2.3 mph WNW3.7 kmh WNW 3.5 mph5.6 kmh 29.92 in1013.2 mb - 0.07 in1.8 mm 0.33 in8.4 mm
05:40 AM 37.8°F3.2°C 36.5°F2.5°C 95% 3.5 mph NNW5.6 kmh NNW 8.1 mph13.0 kmh 29.92 in1013.2 mb - 0.06 in1.5 mm 0.34 in8.6 mm
05:50 AM 37.8°F3.2°C 36.5°F2.5°C 95% 1.2 mph NW1.9 kmh NW 9.2 mph14.8 kmh 29.91 in1012.9 mb - 0.06 in1.5 mm 0.35 in8.9 mm
06:00 AM 37.8°F3.2°C 36.5°F2.5°C 95% 2.3 mph NNW3.7 kmh NNW 3.5 mph5.6 kmh 29.90 in1012.5 mb - 0.04 in1.0 mm 0.35 in8.9 mm
06:10 AM 37.8°F3.2°C 36.5°F2.5°C 95% 2.3 mph N3.7 kmh N 5.8 mph9.3 kmh 29.90 in1012.5 mb - 0.04 in1.0 mm 0.36 in9.1 mm
06:20 AM 37.7°F3.2°C 36.4°F2.4°C 95% 3.5 mph W5.6 kmh W 5.8 mph9.3 kmh 29.89 in1012.2 mb - 0.03 in0.8 mm 0.36 in9.1 mm
06:30 AM 37.7°F3.2°C 36.4°F2.4°C 95% 3.5 mph NW5.6 kmh NW 8.1 mph13.0 kmh 29.88 in1011.9 mb - 0.04 in1.0 mm 0.37 in9.4 mm
06:40 AM 37.6°F3.1°C 36.3°F2.4°C 95% 6.9 mph WNW11.1 kmh WNW 9.2 mph14.8 kmh 29.88 in1011.9 mb - 0.03 in0.8 mm 0.37 in9.4 mm
06:50 AM 37.5°F3.1°C 36.2°F2.3°C 95% 3.5 mph NNW5.6 kmh NNW 8.1 mph13.0 kmh 29.88 in1011.9 mb - 0.02 in0.5 mm 0.37 in9.4 mm
07:00 AM 37.4°F3.0°C 36.1°F2.3°C 95% 4.6 mph N7.4 kmh N 5.8 mph9.3 kmh 29.88 in1011.9 mb - 0.02 in0.5 mm 0.37 in9.4 mm
07:10 AM 37.4°F3.0°C 36.1°F2.3°C 95% 3.5 mph NNW5.6 kmh NNW 2.3 mph3.7 kmh 29.88 in1011.9 mb - 0.02 in0.5 mm 0.38 in9.7 mm
07:20 AM 37.3°F2.9°C 36.0°F2.2°C 95% 5.8 mph WNW9.3 kmh WNW 11.5 mph18.5 kmh 29.88 in1011.9 mb - 0.02 in0.5 mm 0.38 in9.7 mm
07:30 AM 37.4°F3.0°C 36.1°F2.3°C 95% 5.8 mph NW9.3 kmh NW 10.4 mph16.7 kmh 29.88 in1011.9 mb - 0.01 in0.3 mm 0.38 in9.7 mm
07:40 AM 37.4°F3.0°C 36.1°F2.3°C 95% 4.6 mph NNW7.4 kmh NNW 8.1 mph13.0 kmh 29.88 in1011.9 mb - 0.01 in0.3 mm 0.38 in9.7 mm
07:50 AM 37.3°F2.9°C 36.0°F2.2°C 95% 3.5 mph SE5.6 kmh SE 5.8 mph9.3 kmh 29.88 in1011.9 mb - 0.01 in0.3 mm 0.38 in9.7 mm
08:00 AM 37.3°F2.9°C 36.0°F2.2°C 95% 4.6 mph E7.4 kmh E 5.8 mph9.3 kmh 29.88 in1011.9 mb - 0.01 in0.3 mm 0.38 in9.7 mm
08:10 AM 37.4°F3.0°C 36.1°F2.3°C 95% 3.5 mph WNW5.6 kmh WNW 6.9 mph11.1 kmh 29.88 in1011.9 mb - 0.00 in0.0 mm 0.38 in9.7 mm
08:20 AM 37.6°F3.1°C 36.3°F2.4°C 95% 5.8 mph NW9.3 kmh NW 15.0 mph24.1 kmh 29.87 in1011.5 mb - 0.00 in0.0 mm 0.38 in9.7 mm
08:30 AM 37.7°F3.2°C 36.4°F2.4°C 95% 5.8 mph NW9.3 kmh NW 15.0 mph24.1 kmh 29.88 in1011.9 mb - 0.00 in0.0 mm 0.38 in9.7 mm
08:40 AM 37.8°F3.2°C 36.5°F2.5°C 95% 4.6 mph WNW7.4 kmh WNW 5.8 mph9.3 kmh 29.88 in1011.9 mb - 0.00 in0.0 mm 0.38 in9.7 mm
08:50 AM 38.0°F3.3°C 36.6°F2.6°C 95% 3.5 mph NW5.6 kmh NW 5.8 mph9.3 kmh 29.88 in1011.9 mb - 0.00 in0.0 mm 0.38 in9.7 mm
09:00 AM 38.4°F3.6°C 37.3°F2.9°C 96% 3.5 mph N5.6 kmh N 5.8 mph9.3 kmh 29.88 in1011.9 mb - 0.00 in0.0 mm 0.38 in9.7 mm
09:10 AM 38.8°F3.8°C 37.7°F3.2°C 96% 2.3 mph S3.7 kmh S 3.5 mph5.6 kmh 29.88 in1011.9 mb - 0.00 in0.0 mm 0.38 in9.7 mm
09:20 AM 39.0°F3.9°C 37.9°F3.3°C 96% 5.8 mph WNW9.3 kmh WNW 9.2 mph14.8 kmh 29.88 in1011.9 mb - 0.00 in0.0 mm 0.38 in9.7 mm
09:30 AM 39.1°F3.9°C 38.1°F3.4°C 96% 4.6 mph NW7.4 kmh NW 2.3 mph3.7 kmh 29.88 in1011.9 mb - 0.00 in0.0 mm 0.38 in9.7 mm
09:40 AM 39.4°F4.1°C 38.4°F3.6°C 96% 1.2 mph ENE1.9 kmh ENE 2.3 mph3.7 kmh 29.88 in1011.9 mb - 0.00 in0.0 mm 0.38 in9.7 mm
09:50 AM 39.5°F4.2°C 38.5°F3.6°C 96% 6.9 mph NE11.1 kmh NE 10.4 mph16.7 kmh 29.88 in1011.9 mb - 0.00 in0.0 mm 0.38 in9.7 mm
10:00 AM 39.5°F4.2°C 38.5°F3.6°C 96% 3.5 mph 5.6 kmh 2.3 mph3.7 kmh 29.88 in1011.9 mb - 0.00 in0.0 mm 0.38 in9.7 mm
10:10 AM 39.9°F4.4°C 38.9°F3.8°C 96% 4.6 mph NW7.4 kmh NW 9.2 mph14.8 kmh 29.88 in1011.9 mb - 0.00 in0.0 mm 0.38 in9.7 mm
10:20 AM 41.0°F5.0°C 40.0°F4.4°C 96% 2.3 mph NNE3.7 kmh NNE 3.5 mph5.6 kmh 29.87 in1011.5 mb - 0.00 in0.0 mm 0.38 in9.7 mm
10:30 AM 42.3°F5.7°C 41.2°F5.1°C 96% 4.6 mph NW7.4 kmh NW 5.8 mph9.3 kmh 29.87 in1011.5 mb - 0.00 in0.0 mm 0.38 in9.7 mm
10:40 AM 42.5°F5.8°C 41.1°F5.1°C 95% 3.5 mph NW5.6 kmh NW 2.3 mph3.7 kmh 29.88 in1011.9 mb - 0.00 in0.0 mm 0.38 in9.7 mm
10:50 AM 43.3°F6.3°C 41.9°F5.5°C 95% 1.2 mph NNW1.9 kmh NNW 5.8 mph9.3 kmh 29.87 in1011.5 mb - 0.00 in0.0 mm 0.38 in9.7 mm
11:00 AM 43.9°F6.6°C 40.9°F4.9°C 89% 8.1 mph W13.0 kmh W 10.4 mph16.7 kmh 29.88 in1011.9 mb - 0.00 in0.0 mm 0.38 in9.7 mm
11:10 AM 44.9°F7.2°C 41.5°F5.3°C 88% 2.3 mph WSW3.7 kmh WSW 2.3 mph3.7 kmh 29.88 in1011.9 mb - 0.00 in0.0 mm 0.38 in9.7 mm
11:20 AM 46.4°F8.0°C 42.1°F5.6°C 85% 2.3 mph E3.7 kmh E 5.8 mph9.3 kmh 29.88 in1011.9 mb - 0.00 in0.0 mm 0.38 in9.7 mm
11:30 AM 47.8°F8.8°C 42.6°F5.9°C 82% 2.3 mph SSE3.7 kmh SSE 6.9 mph11.1 kmh 29.88 in1011.9 mb - 0.00 in0.0 mm 0.38 in9.7 mm
11:40 AM 48.7°F9.3°C 41.1°F5.1°C 75% 5.8 mph SW9.3 kmh SW 6.9 mph11.1 kmh 29.88 in1011.9 mb - 0.00 in0.0 mm 0.38 in9.7 mm
11:50 AM 50.4°F10.2°C 41.7°F5.4°C 72% 2.3 mph NNE3.7 kmh NNE 6.9 mph11.1 kmh 29.88 in1011.9 mb - 0.00 in0.0 mm 0.38 in9.7 mm
12:00 PM 51.1°F10.6°C 41.3°F5.2°C 69% 3.5 mph W5.6 kmh W 9.2 mph14.8 kmh 29.87 in1011.5 mb - 0.00 in0.0 mm 0.38 in9.7 mm
12:10 PM 51.5°F10.8°C 40.5°F4.7°C 66% 4.6 mph SW7.4 kmh SW 5.8 mph9.3 kmh 29.87 in1011.5 mb - 0.00 in0.0 mm 0.38 in9.7 mm
12:20 PM 52.2°F11.2°C 40.0°F4.4°C 63% 2.3 mph SW3.7 kmh SW 5.8 mph9.3 kmh 29.87 in1011.5 mb - 0.00 in0.0 mm 0.38 in9.7 mm
12:30 PM 53.3°F11.8°C 41.0°F5.0°C 63% 2.3 mph WNW3.7 kmh WNW 2.3 mph3.7 kmh 29.86 in1011.2 mb - 0.00 in0.0 mm 0.38 in9.7 mm
12:40 PM 54.1°F12.3°C 41.0°F5.0°C 61% 2.3 mph SW3.7 kmh SW 3.5 mph5.6 kmh 29.86 in1011.2 mb - 0.00 in0.0 mm 0.38 in9.7 mm
12:50 PM 54.8°F12.7°C 38.5°F3.6°C 54% 3.5 mph W5.6 kmh W 6.9 mph11.1 kmh 29.86 in1011.2 mb - 0.00 in0.0 mm 0.38 in9.7 mm
01:00 PM 55.9°F13.3°C 36.0°F2.2°C 47% 6.9 mph WSW11.1 kmh WSW 8.1 mph13.0 kmh 29.86 in1011.2 mb - 0.00 in0.0 mm 0.38 in9.7 mm
01:10 PM 57.3°F14.1°C 39.8°F4.3°C 52% 4.6 mph WNW7.4 kmh WNW 10.4 mph16.7 kmh 29.86 in1011.2 mb - 0.00 in0.0 mm 0.38 in9.7 mm
01:20 PM 58.4°F14.7°C 36.6°F2.6°C 44% 5.8 mph WSW9.3 kmh WSW 13.8 mph22.2 kmh 29.86 in1011.2 mb - 0.00 in0.0 mm 0.38 in9.7 mm
01:30 PM 57.9°F14.4°C 35.6°F2.0°C 43% 9.2 mph NW14.8 kmh NW 9.2 mph14.8 kmh 29.86 in1011.2 mb - 0.00 in0.0 mm 0.38 in9.7 mm
01:40 PM 58.5°F14.7°C 34.9°F1.6°C 41% 5.8 mph WNW9.3 kmh WNW 8.1 mph13.0 kmh 29.86 in1011.2 mb - 0.00 in0.0 mm 0.38 in9.7 mm
01:50 PM 58.9°F14.9°C 34.6°F1.4°C 40% 9.2 mph WSW14.8 kmh WSW 9.2 mph14.8 kmh 29.85 in1010.8 mb - 0.00 in0.0 mm 0.38 in9.7 mm
02:00 PM 60.3°F15.7°C 35.2°F1.8°C 39% 8.1 mph WSW13.0 kmh WSW 11.5 mph18.5 kmh 29.85 in1010.8 mb - 0.00 in0.0 mm 0.38 in9.7 mm
02:10 PM 60.6°F15.9°C 34.2°F1.2°C 37% 8.1 mph WSW13.0 kmh WSW 16.1 mph25.9 kmh 29.84 in1010.5 mb - 0.00 in0.0 mm 0.38 in9.7 mm
02:20 PM 60.8°F16.0°C 34.3°F1.3°C 37% 6.9 mph WNW11.1 kmh WNW 11.5 mph18.5 kmh 29.84 in1010.5 mb - 0.00 in0.0 mm 0.38 in9.7 mm
02:30 PM 60.1°F15.6°C 34.4°F1.3°C 38% 8.1 mph WNW13.0 kmh WNW 15.0 mph24.1 kmh 29.84 in1010.5 mb - 0.00 in0.0 mm 0.38 in9.7 mm
02:40 PM 61.4°F16.3°C 34.9°F1.6°C 37% 10.4 mph NW16.7 kmh NW 16.1 mph25.9 kmh 29.83 in1010.2 mb - 0.00 in0.0 mm 0.38 in9.7 mm
02:50 PM 61.3°F16.3°C 34.1°F1.2°C 36% 8.1 mph WNW13.0 kmh WNW 11.5 mph18.5 kmh 29.82 in1009.8 mb - 0.00 in0.0 mm 0.38 in9.7 mm
03:00 PM 60.5°F15.8°C 35.4°F1.9°C 39% 3.5 mph SW5.6 kmh SW 8.1 mph13.0 kmh 29.83 in1010.2 mb - 0.00 in0.0 mm 0.38 in9.7 mm
03:10 PM 61.4°F16.3°C 34.8°F1.6°C 37% 6.9 mph WNW11.1 kmh WNW 16.1 mph25.9 kmh 29.83 in1010.2 mb - 0.00 in0.0 mm 0.38 in9.7 mm
03:20 PM 61.9°F16.6°C 30.9°F-0.6°C 31% 9.2 mph SW14.8 kmh SW 15.0 mph24.1 kmh 29.83 in1010.2 mb - 0.00 in0.0 mm 0.38 in9.7 mm
03:30 PM 62.9°F17.2°C 30.9°F-0.6°C 30% 8.1 mph NW13.0 kmh NW 15.0 mph24.1 kmh 29.83 in1010.2 mb - 0.00 in0.0 mm 0.38 in9.7 mm
03:40 PM 63.0°F17.2°C 31.0°F-0.6°C 30% 6.9 mph W11.1 kmh W 21.9 mph35.2 kmh 29.83 in1010.2 mb - 0.00 in0.0 mm 0.38 in9.7 mm
03:50 PM 64.2°F17.9°C 29.5°F-1.4°C 27% 8.1 mph NW13.0 kmh NW 21.9 mph35.2 kmh 29.82 in1009.8 mb - 0.00 in0.0 mm 0.38 in9.7 mm
04:00 PM 64.3°F17.9°C 29.6°F-1.3°C 27% 9.2 mph WSW14.8 kmh WSW 19.6 mph31.5 kmh 29.82 in1009.8 mb - 0.00 in0.0 mm 0.38 in9.7 mm
04:10 PM 63.5°F17.5°C 28.0°F-2.2°C 26% 13.8 mph W22.2 kmh W 15.0 mph24.1 kmh 29.83 in1010.2 mb - 0.00 in0.0 mm 0.38 in9.7 mm
04:20 PM 63.7°F17.6°C 25.2°F-3.8°C 23% 18.4 mph WSW29.6 kmh WSW 33.4 mph53.8 kmh 29.83 in1010.2 mb - 0.00 in0.0 mm 0.38 in9.7 mm
04:30 PM 63.9°F17.7°C 26.4°F-3.1°C 24% 10.4 mph W16.7 kmh W 13.8 mph22.2 kmh 29.84 in1010.5 mb - 0.00 in0.0 mm 0.38 in9.7 mm
04:40 PM 63.9°F17.7°C 25.3°F-3.7°C 23% 13.8 mph W22.2 kmh W 24.2 mph38.9 kmh 29.83 in1010.2 mb - 0.00 in0.0 mm 0.38 in9.7 mm
04:50 PM 63.3°F17.4°C 25.9°F-3.4°C 24% 11.5 mph WNW18.5 kmh WNW 18.4 mph29.6 kmh 29.84 in1010.5 mb - 0.00 in0.0 mm 0.38 in9.7 mm
05:00 PM 63.3°F17.4°C 25.9°F-3.4°C 24% 19.6 mph WNW31.5 kmh WNW 31.1 mph50.1 kmh 29.84 in1010.5 mb - 0.00 in0.0 mm 0.38 in9.7 mm
05:10 PM 63.2°F17.3°C 25.7°F-3.5°C 24% 10.4 mph WSW16.7 kmh WSW 23.0 mph37.0 kmh 29.85 in1010.8 mb - 0.00 in0.0 mm 0.38 in9.7 mm
05:20 PM 62.9°F17.2°C 25.5°F-3.6°C 24% 13.8 mph WSW22.2 kmh WSW 18.4 mph29.6 kmh 29.85 in1010.8 mb - 0.00 in0.0 mm 0.38 in9.7 mm
05:30 PM 62.3°F16.8°C 25.0°F-3.9°C 24% 15.0 mph WSW24.1 kmh WSW 16.1 mph25.9 kmh 29.85 in1010.8 mb - 0.00 in0.0 mm 0.38 in9.7 mm
05:40 PM 61.9°F16.6°C 26.6°F-3.0°C 26% 10.4 mph WSW16.7 kmh WSW 18.4 mph29.6 kmh 29.86 in1011.2 mb - 0.00 in0.0 mm 0.38 in9.7 mm
05:50 PM 61.8°F16.6°C 26.5°F-3.1°C 26% 9.2 mph W14.8 kmh W 17.3 mph27.8 kmh 29.87 in1011.5 mb - 0.00 in0.0 mm 0.38 in9.7 mm
06:00 PM 61.3°F16.3°C 27.0°F-2.8°C 27% 6.9 mph W11.1 kmh W 10.4 mph16.7 kmh 29.87 in1011.5 mb - 0.00 in0.0 mm 0.38 in9.7 mm
06:10 PM 60.4°F15.8°C 27.1°F-2.7°C 28% 9.2 mph NW14.8 kmh NW 9.2 mph14.8 kmh 29.88 in1011.9 mb - 0.00 in0.0 mm 0.38 in9.7 mm
06:20 PM 59.7°F15.4°C 28.2°F-2.1°C 30% 8.1 mph WNW13.0 kmh WNW 11.5 mph18.5 kmh 29.88 in1011.9 mb - 0.00 in0.0 mm 0.38 in9.7 mm
06:30 PM 58.8°F14.9°C 28.2°F-2.1°C 31% 8.1 mph W13.0 kmh W 9.2 mph14.8 kmh 29.89 in1012.2 mb - 0.00 in0.0 mm 0.38 in9.7 mm
06:40 PM 57.9°F14.4°C 28.2°F-2.1°C 32% 6.9 mph W11.1 kmh W 9.2 mph14.8 kmh 29.90 in1012.5 mb - 0.00 in0.0 mm 0.38 in9.7 mm
06:50 PM 56.8°F13.8°C 29.4°F-1.4°C 35% 5.8 mph W9.3 kmh W 9.2 mph14.8 kmh 29.91 in1012.9 mb - 0.00 in0.0 mm 0.38 in9.7 mm
07:00 PM 55.5°F13.1°C 29.6°F-1.3°C 37% 6.9 mph WSW11.1 kmh WSW 10.4 mph16.7 kmh 29.92 in1013.2 mb - 0.00 in0.0 mm 0.38 in9.7 mm
07:10 PM 54.3°F12.4°C 29.2°F-1.6°C 38% 4.6 mph WNW7.4 kmh WNW 15.0 mph24.1 kmh 29.93 in1013.5 mb - 0.00 in0.0 mm 0.38 in9.7 mm
07:20 PM 53.6°F12.0°C 29.2°F-1.6°C 39% 4.6 mph WNW7.4 kmh WNW 10.4 mph16.7 kmh 29.93 in1013.5 mb - 0.00 in0.0 mm 0.38 in9.7 mm
07:30 PM 53.1°F11.7°C 28.8°F-1.8°C 39% 8.1 mph W13.0 kmh W 6.9 mph11.1 kmh 29.93 in1013.5 mb - 0.00 in0.0 mm 0.38 in9.7 mm
07:40 PM 52.7°F11.5°C 28.4°F-2.0°C 39% 5.8 mph NW9.3 kmh NW 23.0 mph37.0 kmh 29.94 in1013.9 mb - 0.00 in0.0 mm 0.38 in9.7 mm
07:50 PM 52.2°F11.2°C 28.6°F-1.9°C 40% 4.6 mph W7.4 kmh W 5.8 mph9.3 kmh 29.95 in1014.2 mb - 0.00 in0.0 mm 0.38 in9.7 mm
08:00 PM 51.5°F10.8°C 28.0°F-2.2°C 40% 3.5 mph W5.6 kmh W 5.8 mph9.3 kmh 29.96 in1014.6 mb - 0.00 in0.0 mm 0.38 in9.7 mm
08:10 PM 51.3°F10.7°C 26.5°F-3.1°C 38% 10.4 mph NW16.7 kmh NW 11.5 mph18.5 kmh 29.97 in1014.9 mb - 0.00 in0.0 mm 0.38 in9.7 mm
08:20 PM 50.9°F10.5°C 26.2°F-3.2°C 38% 6.9 mph NW11.1 kmh NW 11.5 mph18.5 kmh 29.98 in1015.2 mb - 0.00 in0.0 mm 0.38 in9.7 mm
08:30 PM 50.5°F10.3°C 26.4°F-3.1°C 39% 8.1 mph WSW13.0 kmh WSW 15.0 mph24.1 kmh 29.99 in1015.6 mb - 0.00 in0.0 mm 0.38 in9.7 mm
08:40 PM 50.3°F10.2°C 27.5°F-2.5°C 41% 4.6 mph WNW7.4 kmh WNW 18.4 mph29.6 kmh 29.99 in1015.6 mb - 0.00 in0.0 mm 0.38 in9.7 mm
08:50 PM 49.5°F9.7°C 27.4°F-2.6°C 42% 4.6 mph W7.4 kmh W 9.2 mph14.8 kmh 30.01 in1016.3 mb - 0.00 in0.0 mm 0.38 in9.7 mm
09:00 PM 48.8°F9.3°C 27.3°F-2.6°C 43% 4.6 mph WSW7.4 kmh WSW 5.8 mph9.3 kmh 30.02 in1016.6 mb - 0.00 in0.0 mm 0.38 in9.7 mm
09:10 PM 48.2°F9.0°C 26.7°F-2.9°C 43% 6.9 mph W11.1 kmh W 11.5 mph18.5 kmh 30.03 in1016.9 mb - 0.00 in0.0 mm 0.38 in9.7 mm
09:20 PM 47.7°F8.7°C 26.9°F-2.8°C 44% 5.8 mph W9.3 kmh W 5.8 mph9.3 kmh 30.04 in1017.3 mb - 0.00 in0.0 mm 0.38 in9.7 mm
09:30 PM 47.4°F8.6°C 26.0°F-3.3°C 43% 8.1 mph WNW13.0 kmh WNW 10.4 mph16.7 kmh 30.05 in1017.6 mb - 0.00 in0.0 mm 0.38 in9.7 mm
09:40 PM 47.2°F8.4°C 26.4°F-3.1°C 44% 6.9 mph WSW11.1 kmh WSW 8.1 mph13.0 kmh 30.05 in1017.6 mb - 0.00 in0.0 mm 0.38 in9.7 mm
09:50 PM 46.9°F8.3°C 26.1°F-3.3°C 44% 4.6 mph WSW7.4 kmh WSW 13.8 mph22.2 kmh 30.05 in1017.6 mb - 0.00 in0.0 mm 0.38 in9.7 mm
10:00 PM 46.5°F8.1°C 26.3°F-3.2°C 45% 3.5 mph SW5.6 kmh SW 9.2 mph14.8 kmh 30.06 in1017.9 mb - 0.00 in0.0 mm 0.38 in9.7 mm
10:10 PM 45.9°F7.7°C 26.3°F-3.2°C 46% 3.5 mph WNW5.6 kmh WNW 5.8 mph9.3 kmh 30.06 in1017.9 mb - 0.00 in0.0 mm 0.38 in9.7 mm
10:20 PM 46.3°F7.9°C 24.4°F-4.2°C 42% 12.7 mph WSW20.4 kmh WSW 21.9 mph35.2 kmh 30.07 in1018.3 mb - 0.00 in0.0 mm 0.38 in9.7 mm
10:30 PM 46.5°F8.1°C 23.4°F-4.8°C 40% 8.1 mph W13.0 kmh W 15.0 mph24.1 kmh 30.07 in1018.3 mb - 0.00 in0.0 mm 0.38 in9.7 mm
10:40 PM 46.5°F8.1°C 22.8°F-5.1°C 39% 11.5 mph W18.5 kmh W 16.1 mph25.9 kmh 30.08 in1018.6 mb - 0.00 in0.0 mm 0.38 in9.7 mm
10:50 PM 46.3°F7.9°C 22.1°F-5.5°C 38% 10.4 mph W16.7 kmh W 15.0 mph24.1 kmh 30.08 in1018.6 mb - 0.00 in0.0 mm 0.38 in9.7 mm
11:00 PM 45.9°F7.7°C 22.3°F-5.4°C 39% 10.4 mph WNW16.7 kmh WNW 9.2 mph14.8 kmh 30.09 in1019.0 mb - 0.00 in0.0 mm 0.38 in9.7 mm
11:10 PM 45.6°F7.6°C 23.2°F-4.9°C 41% 9.2 mph WSW14.8 kmh WSW 9.2 mph14.8 kmh 30.10 in1019.3 mb - 0.00 in0.0 mm 0.38 in9.7 mm
11:20 PM 45.1°F7.3°C 23.3°F-4.8°C 42% 8.1 mph W13.0 kmh W 15.0 mph24.1 kmh 30.11 in1019.6 mb - 0.00 in0.0 mm 0.38 in9.7 mm
11:30 PM 44.7°F7.1°C 19.3°F-7.1°C 36% 10.4 mph W16.7 kmh W 24.2 mph38.9 kmh 30.11 in1019.6 mb - 0.00 in0.0 mm 0.38 in9.7 mm
11:40 PM 44.0°F6.7°C 18.0°F-7.8°C 35% 17.3 mph W27.8 kmh W 21.9 mph35.2 kmh 30.11 in1019.6 mb - 0.00 in0.0 mm 0.38 in9.7 mm
11:50 PM 43.7°F6.5°C 16.4°F-8.7°C 33% 8.1 mph W13.0 kmh W 26.5 mph42.6 kmh 30.12 in1020.0 mb - 0.00 in0.0 mm 0.38 in9.7 mm